Portada
METAR-TAF:

METAR-TAF

Aeropuertos :

Burgos, España

Aeropuerto de Burgos

latitud: 42-22N, longitud: 003-38W, altitud: 894 m

Observación

El informe se hizo hace 17 minutos, a las 08:00 UTC
Viento 6 kt del sur-suroeste, variando entre sur y suroeste
Temperatura 7°C
Humedad 93%
Presión 1026 hPa
Visibilidad 10 km o más
Cielo nuboso a una altura de 5300 ft

METAR: LEBG 280800Z 20006KT 170V230 9999 BKN053 07/06 Q1026

Hora: 10:17 (08:17 UTC)

Pronóstico

El informe se hizo hace 3 horas y 17 minutos, a las 05:00 UTC
Pronóstico válido del 28 a las 06 UTC al 28 a las 15 UTC
Viento 6 kt del suroeste
Visibilidad 10 km o más
Nubes dispersas a una altura de 1200 ft
Nubes dispersas a una altura de 5000 ft
Probabilidad 30% :
Temporalmente
del 28 a las 06 UTC al 28 a las 09 UTC
Visibilidad: 0800 m
Cielo nuboso a una altura de 800 ft
niebla

TAF: LEBG 280500Z 2806/2815 22006KT 9999 SCT012 SCT050 PROB30 TEMPO 2806/2809 0800 FG BKN008

Observaciones y pronósticos meteorológicos de más de 4000 aeropuertos (mensajes METAR y TAF).

Los puntos amarillos y rojos representan las estaciones disponibles.

Ponga el ratón en el punto deseado para ver el nombre de la estación.

Haga clic para ver las observaciones y los pronósticos meteorológicos.

Para cambiar el mapa : haga clic en los botones verdes con una cruz de color negro para hacer un zoom, en el botón verde con un guión para alejar o en las flechas verdes para mapas adyacentes.


METAR-TAF: